sensor_id;sensor_type;location;lat;lon;timestamp;P1;durP1;ratioP1;P2;durP2;ratioP2
32146;SDS011;32190;49.112;8.598;2022-12-31T00:00:10;0.47;;;0.47;;
32146;SDS011;32190;49.112;8.598;2022-12-31T00:06:10;0.32;;;0.32;;
32146;SDS011;32190;49.112;8.598;2022-12-31T00:12:06;0.57;;;0.28;;
32146;SDS011;32190;49.112;8.598;2022-12-31T00:17:56;0.30;;;0.30;;
32146;SDS011;32190;49.112;8.598;2022-12-31T00:23:47;0.40;;;0.40;;
32146;SDS011;32190;49.112;8.598;2022-12-31T00:29:38;0.40;;;0.40;;
32146;SDS011;32190;49.112;8.598;2022-12-31T00:35:28;0.30;;;0.30;;
32146;SDS011;32190;49.112;8.598;2022-12-31T00:41:20;1.55;;;0.50;;
32146;SDS011;32190;49.112;8.598;2022-12-31T00:47:11;0.20;;;0.20;;
32146;SDS011;32190;49.112;8.598;2022-12-31T00:53:01;0.30;;;0.30;;
32146;SDS011;32190;49.112;8.598;2022-12-31T00:58:52;0.30;;;0.30;;
32146;SDS011;32190;49.112;8.598;2022-12-31T01:04:43;0.30;;;0.30;;
32146;SDS011;32190;49.112;8.598;2022-12-31T01:10:33;0.30;;;0.30;;
32146;SDS011;32190;49.112;8.598;2022-12-31T01:16:47;0.25;;;0.25;;
32146;SDS011;32190;49.112;8.598;2022-12-31T01:22:39;0.40;;;0.38;;
32146;SDS011;32190;49.112;8.598;2022-12-31T01:28:29;0.28;;;0.28;;
32146;SDS011;32190;49.112;8.598;2022-12-31T01:34:20;0.55;;;0.52;;
32146;SDS011;32190;49.112;8.598;2022-12-31T01:40:12;0.50;;;0.25;;
32146;SDS011;32190;49.112;8.598;2022-12-31T01:46:03;1.80;;;0.73;;
32146;SDS011;32190;49.112;8.598;2022-12-31T01:51:55;0.35;;;0.35;;
32146;SDS011;32190;49.112;8.598;2022-12-31T01:57:58;0.30;;;0.30;;
32146;SDS011;32190;49.112;8.598;2022-12-31T02:04:10;0.30;;;0.30;;
32146;SDS011;32190;49.112;8.598;2022-12-31T02:10:02;0.52;;;0.30;;
32146;SDS011;32190;49.112;8.598;2022-12-31T02:15:59;0.40;;;0.40;;
32146;SDS011;32190;49.112;8.598;2022-12-31T02:34:22;0.32;;;0.32;;
32146;SDS011;32190;49.112;8.598;2022-12-31T02:40:18;1.08;;;0.30;;
32146;SDS011;32190;49.112;8.598;2022-12-31T03:05:26;0.98;;;0.40;;
32146;SDS011;32190;49.112;8.598;2022-12-31T03:11:18;0.30;;;0.30;;
32146;SDS011;32190;49.112;8.598;2022-12-31T03:17:29;1.45;;;0.50;;
32146;SDS011;32190;49.112;8.598;2022-12-31T03:23:21;0.40;;;0.40;;
32146;SDS011;32190;49.112;8.598;2022-12-31T03:29:17;0.30;;;0.30;;
32146;SDS011;32190;49.112;8.598;2022-12-31T03:35:07;0.43;;;0.30;;
32146;SDS011;32190;49.112;8.598;2022-12-31T03:40:59;0.30;;;0.30;;
32146;SDS011;32190;49.112;8.598;2022-12-31T03:46:49;0.38;;;0.38;;
32146;SDS011;32190;49.112;8.598;2022-12-31T03:52:40;0.40;;;0.40;;
32146;SDS011;32190;49.112;8.598;2022-12-31T03:58:31;0.55;;;0.30;;
32146;SDS011;32190;49.112;8.598;2022-12-31T04:04:21;0.20;;;0.20;;
32146;SDS011;32190;49.112;8.598;2022-12-31T04:10:13;0.50;;;0.50;;
32146;SDS011;32190;49.112;8.598;2022-12-31T04:16:05;0.20;;;0.20;;
32146;SDS011;32190;49.112;8.598;2022-12-31T04:21:56;0.45;;;0.43;;
32146;SDS011;32190;49.112;8.598;2022-12-31T04:27:46;0.25;;;0.25;;
32146;SDS011;32190;49.112;8.598;2022-12-31T04:33:37;0.88;;;0.30;;
32146;SDS011;32190;49.112;8.598;2022-12-31T04:39:28;0.28;;;0.28;;
32146;SDS011;32190;49.112;8.598;2022-12-31T04:45:18;0.75;;;0.30;;
32146;SDS011;32190;49.112;8.598;2022-12-31T04:51:09;0.30;;;0.30;;
32146;SDS011;32190;49.112;8.598;2022-12-31T04:57:00;0.30;;;0.30;;
32146;SDS011;32190;49.112;8.598;2022-12-31T05:02:50;0.30;;;0.30;;
32146;SDS011;32190;49.112;8.598;2022-12-31T05:08:41;0.35;;;0.35;;
32146;SDS011;32190;49.112;8.598;2022-12-31T05:14:31;0.45;;;0.30;;
32146;SDS011;32190;49.112;8.598;2022-12-31T05:20:22;0.47;;;0.40;;
32146;SDS011;32190;49.112;8.598;2022-12-31T05:26:13;0.20;;;0.20;;
32146;SDS011;32190;49.112;8.598;2022-12-31T05:32:03;0.40;;;0.40;;
32146;SDS011;32190;49.112;8.598;2022-12-31T05:37:54;0.30;;;0.30;;
32146;SDS011;32190;49.112;8.598;2022-12-31T05:43:45;0.30;;;0.30;;
32146;SDS011;32190;49.112;8.598;2022-12-31T05:49:35;0.25;;;0.22;;
32146;SDS011;32190;49.112;8.598;2022-12-31T05:55:26;0.30;;;0.30;;
32146;SDS011;32190;49.112;8.598;2022-12-31T06:01:16;0.30;;;0.30;;
32146;SDS011;32190;49.112;8.598;2022-12-31T06:07:10;0.32;;;0.32;;
32146;SDS011;32190;49.112;8.598;2022-12-31T06:13:18;0.40;;;0.40;;
32146;SDS011;32190;49.112;8.598;2022-12-31T06:19:08;0.30;;;0.30;;
32146;SDS011;32190;49.112;8.598;2022-12-31T06:24:59;0.30;;;0.30;;
32146;SDS011;32190;49.112;8.598;2022-12-31T06:30:50;0.30;;;0.30;;
32146;SDS011;32190;49.112;8.598;2022-12-31T06:36:47;1.55;;;0.30;;
32146;SDS011;32190;49.112;8.598;2022-12-31T06:42:38;0.65;;;0.40;;
32146;SDS011;32190;49.112;8.598;2022-12-31T06:48:29;1.10;;;0.40;;
32146;SDS011;32190;49.112;8.598;2022-12-31T06:54:20;0.55;;;0.40;;
32146;SDS011;32190;49.112;8.598;2022-12-31T07:00:11;0.30;;;0.30;;
32146;SDS011;32190;49.112;8.598;2022-12-31T07:06:25;0.63;;;0.45;;
32146;SDS011;32190;49.112;8.598;2022-12-31T07:12:39;0.30;;;0.30;;
32146;SDS011;32190;49.112;8.598;2022-12-31T07:18:55;0.40;;;0.40;;
32146;SDS011;32190;49.112;8.598;2022-12-31T07:25:05;0.40;;;0.40;;
32146;SDS011;32190;49.112;8.598;2022-12-31T07:31:05;1.05;;;0.30;;
32146;SDS011;32190;49.112;8.598;2022-12-31T07:37:02;0.82;;;0.40;;
32146;SDS011;32190;49.112;8.598;2022-12-31T07:43:09;0.65;;;0.30;;
32146;SDS011;32190;49.112;8.598;2022-12-31T07:49:20;0.43;;;0.43;;
32146;SDS011;32190;49.112;8.598;2022-12-31T07:55:11;0.47;;;0.47;;
32146;SDS011;32190;49.112;8.598;2022-12-31T08:01:02;0.22;;;0.22;;
32146;SDS011;32190;49.112;8.598;2022-12-31T08:13:01;0.30;;;0.30;;
32146;SDS011;32190;49.112;8.598;2022-12-31T08:18:54;0.30;;;0.30;;
32146;SDS011;32190;49.112;8.598;2022-12-31T08:24:52;0.22;;;0.22;;
32146;SDS011;32190;49.112;8.598;2022-12-31T08:43:14;0.38;;;0.28;;
32146;SDS011;32190;49.112;8.598;2022-12-31T08:49:08;0.30;;;0.30;;
32146;SDS011;32190;49.112;8.598;2022-12-31T08:54:59;1.23;;;0.50;;
32146;SDS011;32190;49.112;8.598;2022-12-31T09:00:52;0.35;;;0.20;;
32146;SDS011;32190;49.112;8.598;2022-12-31T09:06:57;0.40;;;0.40;;
32146;SDS011;32190;49.112;8.598;2022-12-31T09:13:04;0.47;;;0.30;;
32146;SDS011;32190;49.112;8.598;2022-12-31T09:19:14;1.17;;;0.30;;
32146;SDS011;32190;49.112;8.598;2022-12-31T09:25:05;0.47;;;0.30;;
32146;SDS011;32190;49.112;8.598;2022-12-31T09:30:57;0.43;;;0.40;;
32146;SDS011;32190;49.112;8.598;2022-12-31T09:37:05;1.00;;;0.30;;
32146;SDS011;32190;49.112;8.598;2022-12-31T10:01:25;0.30;;;0.30;;
32146;SDS011;32190;49.112;8.598;2022-12-31T10:07:46;0.30;;;0.30;;
32146;SDS011;32190;49.112;8.598;2022-12-31T10:20:42;0.35;;;0.35;;
32146;SDS011;32190;49.112;8.598;2022-12-31T10:26:58;1.40;;;0.30;;
32146;SDS011;32190;49.112;8.598;2022-12-31T10:39:17;0.30;;;0.30;;
32146;SDS011;32190;49.112;8.598;2022-12-31T11:10:30;0.40;;;0.40;;
32146;SDS011;32190;49.112;8.598;2022-12-31T11:36:30;0.30;;;0.30;;
32146;SDS011;32190;49.112;8.598;2022-12-31T11:54:59;0.30;;;0.30;;
32146;SDS011;32190;49.112;8.598;2022-12-31T12:01:12;2.55;;;0.60;;
32146;SDS011;32190;49.112;8.598;2022-12-31T12:07:12;0.30;;;0.30;;
32146;SDS011;32190;49.112;8.598;2022-12-31T12:13:12;0.30;;;0.30;;
32146;SDS011;32190;49.112;8.598;2022-12-31T12:19:06;0.30;;;0.30;;
32146;SDS011;32190;49.112;8.598;2022-12-31T12:25:09;0.65;;;0.30;;
32146;SDS011;32190;49.112;8.598;2022-12-31T12:31:15;0.30;;;0.30;;
32146;SDS011;32190;49.112;8.598;2022-12-31T12:43:24;0.63;;;0.45;;
32146;SDS011;32190;49.112;8.598;2022-12-31T12:49:25;0.30;;;0.30;;
32146;SDS011;32190;49.112;8.598;2022-12-31T12:55:35;0.30;;;0.30;;
32146;SDS011;32190;49.112;8.598;2022-12-31T13:01:46;0.20;;;0.20;;
32146;SDS011;32190;49.112;8.598;2022-12-31T13:20:18;0.20;;;0.20;;
32146;SDS011;32190;49.112;8.598;2022-12-31T13:26:18;0.30;;;0.30;;
32146;SDS011;32190;49.112;8.598;2022-12-31T13:32:12;1.25;;;0.45;;
32146;SDS011;32190;49.112;8.598;2022-12-31T13:38:13;0.30;;;0.30;;
32146;SDS011;32190;49.112;8.598;2022-12-31T13:56:24;0.28;;;0.28;;
32146;SDS011;32190;49.112;8.598;2022-12-31T14:02:26;0.28;;;0.28;;
32146;SDS011;32190;49.112;8.598;2022-12-31T14:08:38;0.20;;;0.20;;
32146;SDS011;32190;49.112;8.598;2022-12-31T14:14:39;0.22;;;0.22;;
32146;SDS011;32190;49.112;8.598;2022-12-31T14:21:06;0.22;;;0.20;;
32146;SDS011;32190;49.112;8.598;2022-12-31T14:27:04;0.25;;;0.25;;
32146;SDS011;32190;49.112;8.598;2022-12-31T14:39:15;0.30;;;0.30;;
32146;SDS011;32190;49.112;8.598;2022-12-31T14:51:08;0.20;;;0.20;;
32146;SDS011;32190;49.112;8.598;2022-12-31T14:57:08;0.20;;;0.20;;
32146;SDS011;32190;49.112;8.598;2022-12-31T15:27:57;0.98;;;0.20;;
32146;SDS011;32190;49.112;8.598;2022-12-31T15:39:46;4.15;;;0.55;;
32146;SDS011;32190;49.112;8.598;2022-12-31T15:45:37;0.22;;;0.22;;
32146;SDS011;32190;49.112;8.598;2022-12-31T15:57:39;0.30;;;0.30;;
32146;SDS011;32190;49.112;8.598;2022-12-31T16:03:30;0.22;;;0.22;;
32146;SDS011;32190;49.112;8.598;2022-12-31T16:15:21;0.20;;;0.20;;
32146;SDS011;32190;49.112;8.598;2022-12-31T16:21:34;1.38;;;0.25;;
32146;SDS011;32190;49.112;8.598;2022-12-31T16:27:25;0.68;;;0.20;;
32146;SDS011;32190;49.112;8.598;2022-12-31T16:33:19;0.20;;;0.20;;
32146;SDS011;32190;49.112;8.598;2022-12-31T16:39:20;0.25;;;0.20;;
32146;SDS011;32190;49.112;8.598;2022-12-31T16:45:29;0.20;;;0.20;;
32146;SDS011;32190;49.112;8.598;2022-12-31T16:51:25;0.32;;;0.32;;
32146;SDS011;32190;49.112;8.598;2022-12-31T16:57:19;0.35;;;0.35;;
32146;SDS011;32190;49.112;8.598;2022-12-31T17:35:37;0.30;;;0.30;;
32146;SDS011;32190;49.112;8.598;2022-12-31T17:48:24;0.40;;;0.40;;
32146;SDS011;32190;49.112;8.598;2022-12-31T18:21:06;0.40;;;0.40;;
32146;SDS011;32190;49.112;8.598;2022-12-31T18:41:21;0.57;;;0.57;;
32146;SDS011;32190;49.112;8.598;2022-12-31T18:47:16;0.60;;;0.47;;
32146;SDS011;32190;49.112;8.598;2022-12-31T18:53:28;0.40;;;0.40;;
32146;SDS011;32190;49.112;8.598;2022-12-31T18:59:18;0.80;;;0.47;;
32146;SDS011;32190;49.112;8.598;2022-12-31T19:05:31;0.28;;;0.28;;
32146;SDS011;32190;49.112;8.598;2022-12-31T19:11:22;0.50;;;0.47;;
32146;SDS011;32190;49.112;8.598;2022-12-31T19:17:12;0.40;;;0.40;;
32146;SDS011;32190;49.112;8.598;2022-12-31T19:23:03;0.38;;;0.38;;
32146;SDS011;32190;49.112;8.598;2022-12-31T19:28:54;0.32;;;0.32;;
32146;SDS011;32190;49.112;8.598;2022-12-31T19:34:44;0.50;;;0.50;;
32146;SDS011;32190;49.112;8.598;2022-12-31T19:40:35;0.50;;;0.50;;
32146;SDS011;32190;49.112;8.598;2022-12-31T19:46:25;0.50;;;0.50;;
32146;SDS011;32190;49.112;8.598;2022-12-31T19:52:16;0.40;;;0.40;;
32146;SDS011;32190;49.112;8.598;2022-12-31T19:58:17;0.50;;;0.50;;
32146;SDS011;32190;49.112;8.598;2022-12-31T20:04:14;0.43;;;0.43;;
32146;SDS011;32190;49.112;8.598;2022-12-31T20:10:05;0.50;;;0.50;;
32146;SDS011;32190;49.112;8.598;2022-12-31T20:15:56;0.60;;;0.60;;
32146;SDS011;32190;49.112;8.598;2022-12-31T20:21:47;0.43;;;0.43;;
32146;SDS011;32190;49.112;8.598;2022-12-31T20:27:43;1.92;;;0.60;;
32146;SDS011;32190;49.112;8.598;2022-12-31T20:33:33;0.95;;;0.55;;
32146;SDS011;32190;49.112;8.598;2022-12-31T20:39:24;0.55;;;0.55;;
32146;SDS011;32190;49.112;8.598;2022-12-31T20:45:15;0.60;;;0.60;;
32146;SDS011;32190;49.112;8.598;2022-12-31T20:51:11;0.57;;;0.57;;
32146;SDS011;32190;49.112;8.598;2022-12-31T20:57:09;5.63;;;0.80;;
32146;SDS011;32190;49.112;8.598;2022-12-31T21:03:08;0.65;;;0.65;;
32146;SDS011;32190;49.112;8.598;2022-12-31T21:08:59;0.65;;;0.65;;
32146;SDS011;32190;49.112;8.598;2022-12-31T21:20:53;0.88;;;0.88;;
32146;SDS011;32190;49.112;8.598;2022-12-31T21:26:57;0.95;;;0.95;;
32146;SDS011;32190;49.112;8.598;2022-12-31T21:32:47;0.68;;;0.68;;
32146;SDS011;32190;49.112;8.598;2022-12-31T21:38:40;0.80;;;0.80;;
32146;SDS011;32190;49.112;8.598;2022-12-31T21:44:34;0.70;;;0.70;;
32146;SDS011;32190;49.112;8.598;2022-12-31T21:50:38;0.60;;;0.60;;
32146;SDS011;32190;49.112;8.598;2022-12-31T21:56:31;0.80;;;0.68;;
32146;SDS011;32190;49.112;8.598;2022-12-31T22:02:31;0.50;;;0.50;;
32146;SDS011;32190;49.112;8.598;2022-12-31T22:08:52;1.43;;;0.80;;
32146;SDS011;32190;49.112;8.598;2022-12-31T22:14:58;1.38;;;0.63;;
32146;SDS011;32190;49.112;8.598;2022-12-31T22:21:23;0.60;;;0.60;;
32146;SDS011;32190;49.112;8.598;2022-12-31T22:27:17;0.60;;;0.60;;
32146;SDS011;32190;49.112;8.598;2022-12-31T22:33:13;0.65;;;0.65;;
32146;SDS011;32190;49.112;8.598;2022-12-31T22:39:04;0.75;;;0.68;;
32146;SDS011;32190;49.112;8.598;2022-12-31T22:44:57;0.70;;;0.70;;
